Time;durP1;ratioP1;P1;durP2;ratioP2;P2;SDS_P1;SDS_P2;PMS_P1;PMS_P2;Temp;Humidity;BMP_temperature;BMP_pressure;BME280_temperature;BME280_humidity;BME280_pressure;Samples;Min_cycle;Max_cycle;Signal;HPM_P1;HPM_P2
2021/03/30 00:00:30;;;;;;;7.37;5.53;;;;;;;13.51;36.30;101768.34;5104080;28;20467;-62
2021/03/30 00:02:57;;;;;;;11.33;6.23;;;;;;;13.40;36.55;101765.66;5104771;28;20443;-63
2021/03/30 00:05:23;;;;;;;12.10;5.70;;;;;;;13.48;36.47;101768.59;5103732;28;20455;-63
2021/03/30 00:07:49;;;;;;;10.40;5.77;;;;;;;13.50;36.56;101781.91;5110371;28;20510;-62
2021/03/30 00:10:18;;;;;;;8.23;6.20;;;;;;;13.43;36.13;101769.94;5123814;28;20486;-63
2021/03/30 00:12:44;;;;;;;13.33;6.20;;;;;;;13.40;36.04;101775.56;5112499;28;20752;-62
2021/03/30 00:15:13;;;;;;;10.83;6.17;;;;;;;13.49;35.54;101775.69;5103610;28;20504;-63
2021/03/30 00:17:39;;;;;;;8.50;6.60;;;;;;;13.58;35.94;101774.09;5104687;28;20442;-63
2021/03/30 00:20:09;;;;;;;7.80;6.13;;;;;;;13.50;36.05;101782.75;5104197;28;20450;-62
2021/03/30 00:22:35;;;;;;;8.00;5.80;;;;;;;13.52;35.97;101786.19;5103937;28;20469;-63
2021/03/30 00:25:02;;;;;;;10.53;5.70;;;;;;;13.49;35.86;101775.69;5111946;28;20864;-63
2021/03/30 00:27:29;;;;;;;6.83;5.10;;;;;;;13.28;36.22;101782.72;5104187;28;20878;-61
2021/03/30 00:29:55;;;;;;;6.77;5.27;;;;;;;13.08;36.90;101782.44;5104436;28;20540;-63
2021/03/30 00:32:21;;;;;;;13.27;6.57;;;;;;;12.92;37.31;101782.78;5103377;28;21090;-62
2021/03/30 00:34:47;;;;;;;11.43;7.37;;;;;;;13.03;37.32;101781.09;5104090;28;20466;-61
2021/03/30 00:37:14;;;;;;;8.30;6.20;;;;;;;12.96;37.31;101783.41;5102764;28;21056;-62
2021/03/30 00:39:40;;;;;;;11.87;6.87;;;;;;;13.21;37.30;101781.47;5103711;28;20439;-61
2021/03/30 00:42:07;;;;;;;12.83;6.70;;;;;;;13.35;36.85;101775.94;5103204;28;20487;-62
2021/03/30 00:44:34;;;;;;;10.67;6.63;;;;;;;13.24;37.35;101787.47;5124098;28;20446;-63
2021/03/30 00:47:01;;;;;;;13.03;6.83;;;;;;;13.26;36.87;101788.22;5103123;28;20987;-62
2021/03/30 00:49:30;;;;;;;10.90;6.90;;;;;;;13.15;37.21;101783.69;5104348;28;20443;-63
2021/03/30 00:51:56;;;;;;;8.07;6.73;;;;;;;13.03;37.45;101783.78;5102181;28;20478;-62
2021/03/30 00:54:22;;;;;;;10.10;6.50;;;;;;;13.25;37.17;101785.66;5103675;28;20459;-63
2021/03/30 00:56:48;;;;;;;11.10;7.10;;;;;;;13.23;36.98;101787.59;5110472;28;20470;-63
2021/03/30 00:59:17;;;;;;;12.30;6.90;;;;;;;13.28;36.90;101794.34;5124863;28;20441;-63
2021/03/30 01:01:45;;;;;;;8.97;6.20;;;;;;;13.16;38.23;101792.59;5108158;28;20988;-63
2021/03/30 01:04:11;;;;;;;11.23;6.10;;;;;;;13.10;39.28;101793.06;5103607;28;20478;-61
2021/03/30 01:06:38;;;;;;;10.97;7.53;;;;;;;12.88;39.39;101786.69;5102435;28;20482;-62
2021/03/30 01:09:15;;;;;;;11.10;7.10;;;;;;;12.77;39.99;101783.97;5103078;28;20458;-63
2021/03/30 01:11:49;;;;;;;7.57;5.70;;;;;;;12.48;41.78;101792.41;5123631;28;20509;-63
2021/03/30 01:14:37;;;;;;;8.07;5.37;;;;;;;12.17;43.32;101781.28;5113066;28;20457;-63
2021/03/30 01:17:09;;;;;;;9.50;6.20;;;;;;;11.97;43.16;101781.88;5103319;28;20991;-61
2021/03/30 01:20:06;;;;;;;6.50;5.63;;;;;;;11.97;45.20;101781.88;5103345;28;20905;-61
2021/03/30 01:23:07;;;;;;;11.00;5.63;;;;;;;11.90;46.15;101784.09;5102760;28;20470;-61
2021/03/30 01:25:35;;;;;;;10.07;6.30;;;;;;;11.74;45.49;101779.00;5093105;28;20485;-62
2021/03/30 01:28:04;;;;;;;10.87;6.70;;;;;;;11.60;44.38;101780.00;5100874;28;20446;-62
2021/03/30 01:30:33;;;;;;;12.87;6.17;;;;;;;11.48;44.43;101792.44;5080018;28;20471;-62
2021/03/30 01:33:02;;;;;;;9.60;6.07;;;;;;;11.33;44.25;101777.44;5080066;28;20472;-62
2021/03/30 01:35:29;;;;;;;9.93;5.90;;;;;;;11.34;45.39;101789.03;5078756;28;20880;-61
2021/03/30 01:37:56;;;;;;;9.77;6.83;;;;;;;11.36;45.60;101779.91;5079312;28;20452;-62
2021/03/30 01:40:25;;;;;;;9.83;6.90;;;;;;;11.38;44.67;101777.13;5090826;28;20451;-63
2021/03/30 01:42:52;;;;;;;14.50;6.87;;;;;;;11.34;43.82;101784.53;5086256;28;20474;-63
2021/03/30 01:45:20;;;;;;;10.67;6.47;;;;;;;11.45;44.97;101773.91;5078833;28;20542;-61
2021/03/30 01:47:48;;;;;;;10.63;6.53;;;;;;;11.42;42.68;101784.84;5080345;28;20451;-62
2021/03/30 01:50:15;;;;;;;13.50;6.87;;;;;;;11.55;42.16;101781.31;5079182;28;20488;-62
2021/03/30 01:52:42;;;;;;;9.73;5.97;;;;;;;11.64;43.45;101777.94;5081911;28;20973;-62
2021/03/30 01:55:09;;;;;;;8.77;6.60;;;;;;;11.64;44.41;101773.44;5088410;28;20447;-63
2021/03/30 01:57:37;;;;;;;13.30;5.93;;;;;;;11.63;44.72;101776.22;5085610;28;20980;-61
2021/03/30 02:00:06;;;;;;;15.00;6.90;;;;;;;11.38;43.44;101774.47;5095627;28;20466;-63
2021/03/30 02:02:33;;;;;;;14.10;7.20;;;;;;;11.31;43.95;101771.34;5101629;28;20469;-62
2021/03/30 02:05:01;;;;;;;12.13;6.00;;;;;;;11.19;44.99;101775.75;5102471;28;20529;-62
2021/03/30 02:07:28;;;;;;;11.40;7.70;;;;;;;11.15;45.01;101776.94;5101350;28;20479;-62
2021/03/30 02:09:57;;;;;;;13.57;7.23;;;;;;;11.28;43.90;101769.75;5101251;28;20517;-63
2021/03/30 02:12:29;;;;;;;9.70;6.40;;;;;;;11.14;43.48;101777.03;5101599;28;20471;-62
2021/03/30 02:14:55;;;;;;;11.23;7.43;;;;;;;11.13;43.96;101773.50;5101662;28;20447;-61
2021/03/30 02:17:26;;;;;;;11.00;6.20;;;;;;;11.26;42.97;101784.19;5101815;28;20482;-61
2021/03/30 02:19:58;;;;;;;12.03;7.13;;;;;;;11.36;42.40;101784.44;5102105;28;20435;-63
2021/03/30 02:22:27;;;;;;;9.80;6.60;;;;;;;11.28;42.52;101787.63;5101391;28;20474;-63
2021/03/30 02:24:55;;;;;;;11.77;7.23;;;;;;;11.32;42.63;101778.44;5101640;28;20450;-63
2021/03/30 02:27:23;;;;;;;10.53;6.90;;;;;;;11.24;42.65;101776.28;5101445;28;20634;-63
2021/03/30 02:29:50;;;;;;;10.07;6.97;;;;;;;11.44;42.15;101771.31;5102005;28;20473;-61
2021/03/30 02:32:17;;;;;;;10.40;7.20;;;;;;;11.52;42.59;101779.69;5101523;28;20482;-62
2021/03/30 02:34:47;;;;;;;13.17;7.10;;;;;;;11.54;41.88;101774.22;5101178;28;20442;-63
2021/03/30 02:37:14;;;;;;;10.27;7.30;;;;;;;11.38;42.55;101771.78;5100968;28;20470;-61
2021/03/30 02:39:42;;;;;;;8.40;6.80;;;;;;;11.29;42.69;101779.47;5101728;28;20455;-62
2021/03/30 02:42:08;;;;;;;15.37;7.10;;;;;;;11.14;42.88;101780.56;5101371;28;20491;-62
2021/03/30 02:44:35;;;;;;;10.97;6.93;;;;;;;11.21;42.99;101775.63;5100965;28;20448;-61
2021/03/30 02:47:01;;;;;;;10.30;7.10;;;;;;;11.23;42.97;101771.03;5101018;28;20471;-62
2021/03/30 02:49:28;;;;;;;16.57;7.57;;;;;;;11.35;42.77;101782.69;5101202;28;20481;-62
2021/03/30 02:51:57;;;;;;;11.97;7.30;;;;;;;11.35;43.23;101778.19;5100727;28;20482;-62
2021/03/30 02:54:24;;;;;;;15.67;6.17;;;;;;;11.23;43.58;101777.25;5100812;28;20463;-63
2021/03/30 02:56:51;;;;;;;11.47;6.77;;;;;;;11.22;44.25;101772.00;5100688;28;20471;-62
2021/03/30 02:59:19;;;;;;;14.77;7.37;;;;;;;11.14;46.25;101785.91;5101334;28;20971;-62
2021/03/30 03:01:46;;;;;;;13.30;8.23;;;;;;;11.03;44.08;101778.63;5100130;28;20510;-60
2021/03/30 03:04:12;;;;;;;11.50;6.50;;;;;;;11.02;45.18;101776.91;5101095;28;20805;-60
2021/03/30 03:06:40;;;;;;;15.87;7.13;;;;;;;10.99;46.78;101785.16;5100675;28;20839;-58
2021/03/30 03:09:07;;;;;;;9.83;7.10;;;;;;;10.94;45.79;101787.31;5102597;28;20438;-59
2021/03/30 03:11:34;;;;;;;11.77;7.00;;;;;;;10.90;46.18;101780.44;5120420;28;20494;-59
2021/03/30 03:14:01;;;;;;;15.23;8.63;;;;;;;10.83;45.81;101782.69;5116076;28;20493;-60
2021/03/30 03:16:28;;;;;;;11.07;7.30;;;;;;;10.92;46.57;101781.19;5100919;28;20502;-60
2021/03/30 03:18:54;;;;;;;14.53;8.27;;;;;;;10.88;44.66;101777.88;5101541;28;20443;-59
2021/03/30 03:21:24;;;;;;;9.73;7.30;;;;;;;10.87;45.48;101773.47;5100419;28;20481;-59
2021/03/30 03:23:50;;;;;;;12.17;7.40;;;;;;;10.88;46.10;101777.88;5102865;28;20967;-59
2021/03/30 03:26:16;;;;;;;10.70;7.30;;;;;;;10.88;45.98;101771.66;5120739;28;20477;-60
2021/03/30 03:28:43;;;;;;;10.93;7.63;;;;;;;10.91;46.69;101779.47;5118773;28;20443;-60
2021/03/30 03:31:11;;;;;;;10.40;7.10;;;;;;;10.90;46.60;101772.41;5099972;28;20475;-59
2021/03/30 03:33:37;;;;;;;13.30;8.20;;;;;;;10.94;45.64;101776.59;5081032;28;20436;-59
2021/03/30 03:36:09;;;;;;;13.10;7.73;;;;;;;10.79;45.36;101772.28;5080247;28;21020;-60
2021/03/30 03:38:36;;;;;;;13.87;8.30;;;;;;;10.70;45.44;101769.28;5100128;28;20504;-59
2021/03/30 03:41:04;;;;;;;12.90;8.53;;;;;;;10.95;44.86;101780.13;5100175;28;20462;-61
2021/03/30 03:43:30;;;;;;;17.27;8.93;;;;;;;11.14;44.62;101785.91;5101258;28;20458;-63
2021/03/30 03:45:57;;;;;;;13.43;8.53;;;;;;;11.38;43.96;101769.09;5099716;28;20531;-62
2021/03/30 03:48:24;;;;;;;23.13;8.47;;;;;;;11.45;43.73;101773.06;5101153;28;20474;-62
2021/03/30 03:50:50;;;;;;;14.03;8.43;;;;;;;11.45;44.29;101778.41;5100200;28;20517;-63
2021/03/30 03:53:17;;;;;;;15.00;9.20;;;;;;;11.44;44.22;101777.56;5100709;28;20485;-62
2021/03/30 03:55:48;;;;;;;16.50;9.13;;;;;;;11.42;44.38;101783.97;5119320;28;20476;-61
2021/03/30 03:58:16;;;;;;;11.93;7.50;;;;;;;11.50;44.37;101784.28;5106084;28;20455;-62
2021/03/30 04:00:42;;;;;;;12.90;8.10;;;;;;;11.57;43.69;101780.22;5100226;28;20911;-62
2021/03/30 04:03:15;;;;;;;15.60;9.10;;;;;;;11.54;44.23;101783.09;5101191;28;20443;-62
2021/03/30 04:05:47;;;;;;;17.80;8.80;;;;;;;11.55;43.74;101768.75;5099892;28;20501;-62
2021/03/30 04:08:15;;;;;;;13.97;8.87;;;;;;;11.64;43.99;101784.16;5100307;28;20462;-62
2021/03/30 04:10:43;;;;;;;15.10;9.37;;;;;;;11.52;44.71;101785.03;5099406;28;20482;-61
2021/03/30 04:13:10;;;;;;;10.87;8.00;;;;;;;11.48;46.52;101783.56;5101369;28;20440;-61
2021/03/30 04:15:37;;;;;;;16.90;8.17;;;;;;;11.20;45.23;101790.84;5100859;28;20470;-63
2021/03/30 04:18:05;;;;;;;18.03;9.30;;;;;;;11.26;45.18;101770.81;5110906;28;20434;-62
2021/03/30 04:20:32;;;;;;;14.70;9.17;;;;;;;11.46;44.02;101774.78;5111102;28;20463;-61
2021/03/30 04:23:00;;;;;;;15.40;9.37;;;;;;;11.64;44.70;101770.75;5104604;28;20450;-61
2021/03/30 04:25:27;;;;;;;14.03;8.50;;;;;;;11.58;44.21;101781.94;5104584;28;21006;-62
2021/03/30 04:27:53;;;;;;;20.07;8.63;;;;;;;11.41;45.87;101780.44;5104704;28;20423;-62
2021/03/30 04:30:20;;;;;;;16.50;8.67;;;;;;;11.12;45.85;101793.19;5103431;28;20525;-63
2021/03/30 04:32:47;;;;;;;12.53;8.47;;;;;;;11.04;45.78;101790.19;5103572;28;20478;-62
2021/03/30 04:35:13;;;;;;;12.87;8.97;;;;;;;10.99;46.14;101792.31;5103476;28;20917;-62
2021/03/30 04:37:40;;;;;;;16.23;9.47;;;;;;;10.95;45.89;101790.81;5104212;28;20485;-61
2021/03/30 04:40:10;;;;;;;15.73;8.63;;;;;;;11.05;46.98;101786.56;5105253;28;20446;-61
2021/03/30 04:42:36;;;;;;;18.57;10.23;;;;;;;10.95;47.91;101793.50;5103967;28;20459;-60
2021/03/30 04:45:03;;;;;;;16.90;9.73;;;;;;;10.77;47.42;101788.44;5102591;28;20451;-60
2021/03/30 04:47:29;;;;;;;15.27;10.43;;;;;;;10.88;46.84;101785.03;5103785;28;20503;-59
2021/03/30 04:49:55;;;;;;;14.20;8.63;;;;;;;10.89;47.15;101784.94;5103831;28;20450;-59
2021/03/30 04:52:22;;;;;;;15.50;9.10;;;;;;;10.88;48.11;101798.41;5103157;28;20479;-59
2021/03/30 04:54:48;;;;;;;15.70;8.90;;;;;;;10.76;46.97;101797.41;5111420;28;20450;-60
2021/03/30 04:57:15;;;;;;;16.57;9.60;;;;;;;10.77;46.40;101804.50;5123074;28;20466;-60
2021/03/30 04:59:41;;;;;;;18.60;8.97;;;;;;;10.93;46.37;101810.50;5124308;28;20442;-59
2021/03/30 05:02:07;;;;;;;13.67;8.83;;;;;;;11.00;46.52;101807.44;5109584;28;20491;-62
2021/03/30 05:04:33;;;;;;;18.17;9.40;;;;;;;11.04;46.81;101806.25;5103554;28;20501;-62
2021/03/30 05:07:00;;;;;;;16.20;9.87;;;;;;;11.03;46.30;101810.75;5102039;28;20478;-61
2021/03/30 05:09:26;;;;;;;19.33;10.40;;;;;;;11.05;46.08;101814.16;5103258;28;20477;-61
2021/03/30 05:11:52;;;;;;;16.13;9.70;;;;;;;11.26;46.66;101825.22;5102491;28;20485;-62
2021/03/30 05:14:19;;;;;;;15.60;9.73;;;;;;;11.60;45.61;101814.81;5103682;28;20447;-63
2021/03/30 05:16:45;;;;;;;17.70;10.20;;;;;;;12.01;44.95;101810.16;5102461;28;20486;-61
2021/03/30 05:19:11;;;;;;;12.53;9.00;;;;;;;12.33;44.28;101813.16;5103426;28;20507;-61
2021/03/30 05:21:38;;;;;;;18.33;9.43;;;;;;;13.05;44.10;101811.38;5102705;28;20470;-61
2021/03/30 05:24:04;;;;;;;16.20;9.03;;;;;;;13.70;41.68;101816.13;5103128;28;20462;-62
2021/03/30 05:26:31;;;;;;;15.90;9.33;;;;;;;14.34;39.89;101811.00;5102400;28;20524;-61
2021/03/30 05:28:57;;;;;;;19.77;9.57;;;;;;;14.62;38.65;101828.44;5102445;28;20855;-60
2021/03/30 05:31:24;;;;;;;14.27;9.30;;;;;;;15.33;38.61;101822.41;5101664;28;20529;-61
2021/03/30 05:33:50;;;;;;;16.70;8.97;;;;;;;15.96;36.79;101828.53;5102674;28;20438;-61
2021/03/30 05:36:16;;;;;;;14.07;9.70;;;;;;;17.01;34.60;101826.25;5102190;28;20479;-61
2021/03/30 05:38:42;;;;;;;20.47;10.30;;;;;;;17.30;33.30;101829.75;5102956;28;20443;-61
2021/03/30 05:41:09;;;;;;;18.87;9.83;;;;;;;17.54;33.37;101830.28;5112964;28;20487;-61
2021/03/30 05:43:35;;;;;;;18.57;10.33;;;;;;;17.42;33.44;101830.44;5102521;28;20482;-62
2021/03/30 05:46:02;;;;;;;16.63;9.70;;;;;;;17.16;34.22;101827.53;5101600;28;20497;-63
2021/03/30 05:48:30;;;;;;;15.37;8.87;;;;;;;17.75;33.34;101833.59;5103303;28;20447;-62
2021/03/30 05:50:57;;;;;;;14.40;9.77;;;;;;;18.04;32.21;101835.34;5101957;28;20528;-62
2021/03/30 05:53:24;;;;;;;16.17;8.00;;;;;;;18.17;34.71;101835.84;5102505;28;20455;-60
2021/03/30 05:55:54;;;;;;;15.03;8.83;;;;;;;18.40;32.71;101830.84;5101728;28;20474;-61
2021/03/30 05:58:20;;;;;;;16.50;10.10;;;;;;;19.49;30.21;101840.56;5103302;28;20435;-61
2021/03/30 06:00:47;;;;;;;12.77;8.90;;;;;;;20.62;28.87;101839.50;5102013;28;20475;-61
2021/03/30 06:03:23;;;;;;;15.70;9.47;;;;;;;21.44;27.31;101840.31;5103302;28;20434;-62
2021/03/30 06:05:53;;;;;;;18.60;10.00;;;;;;;22.88;23.85;101848.31;5103552;28;20500;-62
2021/03/30 06:08:20;;;;;;;30.43;11.20;;;;;;;22.53;23.22;101845.19;5109079;28;20451;-62
2021/03/30 06:10:47;;;;;;;22.50;10.60;;;;;;;21.73;24.81;101847.06;5100837;28;20490;-63
2021/03/30 06:13:14;;;;;;;17.50;11.07;;;;;;;21.80;24.43;101855.38;5102654;28;20443;-61
2021/03/30 06:15:40;;;;;;;16.30;10.50;;;;;;;22.88;25.45;101854.66;5099979;28;20479;-61
2021/03/30 06:18:18;;;;;;;13.80;8.63;;;;;;;23.98;23.99;101861.41;5093947;28;20440;-61
2021/03/30 06:20:44;;;;;;;16.30;9.03;;;;;;;25.03;22.88;101853.72;5101699;28;20481;-61
2021/03/30 06:23:11;;;;;;;15.90;9.13;;;;;;;26.02;21.63;101858.25;5101781;28;20863;-62
2021/03/30 06:25:42;;;;;;;19.90;10.83;;;;;;;26.07;20.82;101855.69;5115371;28;20482;-62
2021/03/30 06:28:17;;;;;;;15.30;10.13;;;;;;;27.09;19.21;101863.13;5122825;28;20434;-62
2021/03/30 06:30:59;;;;;;;12.10;9.10;;;;;;;26.56;20.15;101862.00;5121304;28;20543;-62
2021/03/30 06:33:26;;;;;;;12.27;8.70;;;;;;;25.58;20.87;101867.66;5123036;28;20468;-62
2021/03/30 06:35:52;;;;;;;12.70;8.83;;;;;;;25.61;20.97;101866.41;5121718;28;20481;-62
2021/03/30 06:38:19;;;;;;;17.40;9.57;;;;;;;26.27;20.00;101866.75;5121843;28;20461;-61
2021/03/30 06:40:47;;;;;;;11.83;8.40;;;;;;;26.69;20.46;101877.66;5093386;28;20470;-62
2021/03/30 06:45:58;;;;;;;12.80;9.30;;;;;;;28.13;18.49;101872.47;5099814;28;20479;-62
2021/03/30 06:48:24;;;;;;;14.07;10.20;;;;;;;27.87;18.82;101876.16;5101793;28;20431;-62
2021/03/30 06:50:50;;;;;;;15.57;11.50;;;;;;;25.84;19.45;101872.44;5100768;28;20479;-62
2021/03/30 06:53:17;;;;;;;15.10;11.13;;;;;;;28.27;17.78;101882.34;5099441;28;20971;-61
2021/03/30 06:55:49;;;;;;;19.97;12.37;;;;;;;28.59;16.56;101876.06;5103158;28;20474;-60
2021/03/30 06:58:16;;;;;;;19.47;13.43;;;;;;;28.20;16.97;101880.69;5100566;28;20438;-61
2021/03/30 07:00:44;;;;;;;14.50;10.83;;;;;;;30.26;16.03;101883.63;5105153;28;20470;-63
2021/03/30 07:03:11;;;;;;;18.90;12.33;;;;;;;30.63;15.08;101886.31;5092621;28;20454;-64
2021/03/30 07:05:39;;;;;;;19.73;11.90;;;;;;;30.09;15.60;101879.84;5098856;28;20532;-64
2021/03/30 07:08:06;;;;;;;16.33;11.43;;;;;;;29.80;17.71;101880.34;5099558;28;20447;-64
2021/03/30 07:10:34;;;;;;;19.30;12.50;;;;;;;29.10;17.06;101889.69;5112531;28;20473;-62
2021/03/30 07:13:01;;;;;;;22.87;12.80;;;;;;;29.74;15.73;101888.66;5112001;28;20459;-62
2021/03/30 07:15:28;;;;;;;22.53;13.30;;;;;;;31.00;15.74;101888.94;5100122;28;20478;-63
2021/03/30 07:18:03;;;;;;;21.23;13.67;;;;;;;30.49;15.18;101895.88;5099521;28;20469;-62
2021/03/30 07:20:31;;;;;;;17.77;13.57;;;;;;;31.07;14.83;101891.59;5099731;28;20485;-62
2021/03/30 07:22:58;;;;;;;24.10;14.40;;;;;;;29.25;16.24;101889.38;5100294;28;20451;-62
2021/03/30 07:25:26;;;;;;;21.00;14.37;;;;;;;31.14;14.75;101898.72;5099887;28;20682;-62
2021/03/30 07:27:56;;;;;;;17.93;12.13;;;;;;;31.97;14.25;101895.94;5100242;28;20458;-63
2021/03/30 07:30:24;;;;;;;19.47;13.30;;;;;;;33.17;13.28;101895.19;5099054;28;20543;-63
2021/03/30 07:33:02;;;;;;;24.17;15.57;;;;;;;32.74;12.78;101902.19;5099511;28;20431;-63
2021/03/30 07:35:29;;;;;;;19.90;14.60;;;;;;;33.35;12.24;101894.06;5099125;28;20474;-63
2021/03/30 07:38:03;;;;;;;21.37;14.70;;;;;;;32.63;13.39;101895.63;5103942;28;20459;-63
2021/03/30 07:40:29;;;;;;;17.37;13.33;;;;;;;33.92;12.68;101899.38;5106539;28;20470;-63
2021/03/30 07:42:57;;;;;;;18.40;13.67;;;;;;;34.64;12.14;101897.41;5112413;28;20451;-63
2021/03/30 07:45:27;;;;;;;19.07;14.70;;;;;;;35.29;11.68;101891.06;5098557;28;20615;-63
2021/03/30 07:47:53;;;;;;;18.80;14.47;;;;;;;35.60;11.40;101898.50;5099509;28;20439;-62
2021/03/30 07:50:22;;;;;;;22.23;15.67;;;;;;;32.61;13.21;101893.09;5099633;28;20517;-62
2021/03/30 07:52:50;;;;;;;22.37;15.67;;;;;;;34.14;12.77;101892.97;5102576;28;20545;-62
2021/03/30 07:55:22;;;;;;;25.50;16.27;;;;;;;30.67;14.78;101889.44;5103718;28;20826;-62
2021/03/30 07:58:02;;;;;;;21.40;14.90;;;;;;;28.03;17.68;101897.69;5102652;28;20443;-63
2021/03/30 08:00:53;;;;;;;25.90;15.77;;;;;;;28.38;18.01;101891.81;5102261;28;20474;-62
2021/03/30 08:03:27;;;;;;;24.07;17.57;;;;;;;28.46;17.88;101890.72;5098245;28;20482;-63
2021/03/30 08:06:22;;;;;;;20.37;14.70;;;;;;;26.56;18.34;101894.06;5102584;28;20780;-63
2021/03/30 08:08:56;;;;;;;23.80;13.57;;;;;;;25.76;19.33;101894.50;5105204;28;20867;-63
2021/03/30 08:11:45;;;;;;;23.50;15.07;;;;;;;25.78;19.67;101902.53;5102302;28;20532;-62
2021/03/30 08:14:12;;;;;;;22.60;14.37;;;;;;;27.47;18.31;101895.47;5103491;28;20461;-62
2021/03/30 08:16:41;;;;;;;24.67;14.87;;;;;;;27.20;17.86;101896.31;5102053;28;20547;-62
2021/03/30 08:19:09;;;;;;;22.17;14.50;;;;;;;28.15;17.35;101900.59;5102175;28;20473;-62
2021/03/30 08:21:54;;;;;;;24.60;14.17;;;;;;;27.10;17.20;101903.25;5101789;28;20488;-63
2021/03/30 08:24:20;;;;;;;21.70;14.50;;;;;;;29.53;15.80;101901.84;5100353;28;20465;-62
2021/03/30 08:26:47;;;;;;;23.07;13.93;;;;;;;27.96;17.09;101905.94;5100550;28;20482;-63
2021/03/30 08:29:14;;;;;;;21.83;14.43;;;;;;;28.11;16.02;101910.34;5099109;28;20924;-63
2021/03/30 08:31:43;;;;;;;24.90;14.80;;;;;;;28.14;16.43;101912.66;5089469;28;20494;-63
2021/03/30 08:34:14;;;;;;;20.53;13.37;;;;;;;27.28;16.23;101906.25;5101121;28;20443;-63
2021/03/30 08:37:01;;;;;;;22.37;14.33;;;;;;;29.39;14.92;101911.28;5101312;28;20470;-63
2021/03/30 08:39:35;;;;;;;21.50;13.90;;;;;;;29.00;15.41;101914.09;5057729;28;20448;-64
2021/03/30 08:42:12;;;;;;;26.90;14.30;;;;;;;28.80;15.13;101914.25;5060574;28;20477;-62
2021/03/30 08:44:42;;;;;;;21.03;13.40;;;;;;;26.91;17.74;101914.00;5058620;28;20801;-61
2021/03/30 08:47:10;;;;;;;16.33;11.80;;;;;;;27.12;16.32;101909.41;5027113;28;20485;-62
2021/03/30 08:49:39;;;;;;;19.27;12.27;;;;;;;27.32;15.41;101902.00;5028520;28;20978;-63
2021/03/30 08:52:08;;;;;;;18.97;11.00;;;;;;;26.78;15.55;101916.72;5039726;28;20539;-64
2021/03/30 08:54:35;;;;;;;17.70;10.70;;;;;;;26.53;16.16;101911.78;5039318;28;20450;-64
2021/03/30 08:57:04;;;;;;;20.40;11.97;;;;;;;27.05;15.24;101912.13;5043237;28;20540;-63
2021/03/30 08:59:30;;;;;;;17.83;12.10;;;;;;;27.24;16.10;101908.53;5037943;28;20480;-62
2021/03/30 09:01:58;;;;;;;18.03;11.20;;;;;;;27.77;15.30;101915.91;5036542;28;20478;-62
2021/03/30 09:04:30;;;;;;;18.20;10.70;;;;;;;27.91;14.51;101915.88;5038318;28;20453;-61
2021/03/30 09:06:57;;;;;;;18.63;11.80;;;;;;;27.79;14.47;101911.06;5038044;28;20477;-62
2021/03/30 09:09:26;;;;;;;16.60;9.80;;;;;;;26.93;14.36;101913.81;5037500;28;20478;-60
2021/03/30 09:11:53;;;;;;;15.37;10.67;;;;;;;26.62;15.03;101918.78;5040333;28;20493;-61
2021/03/30 09:14:21;;;;;;;16.93;10.63;;;;;;;25.93;15.91;101916.97;5043991;28;20524;-62
2021/03/30 09:16:50;;;;;;;17.47;10.40;;;;;;;26.88;16.22;101916.34;5062518;28;20507;-63
2021/03/30 09:19:23;;;;;;;15.10;9.00;;;;;;;28.11;14.39;101924.09;5080881;28;20840;-63
2021/03/30 09:22:00;;;;;;;18.50;11.90;;;;;;;27.14;15.39;101918.25;5079546;28;20555;-63
2021/03/30 09:24:35;;;;;;;18.70;10.40;;;;;;;27.17;15.43;101923.34;5079607;28;20448;-61
2021/03/30 09:27:02;;;;;;;15.10;8.80;;;;;;;27.99;13.34;101929.41;5078753;28;20475;-60
2021/03/30 09:29:31;;;;;;;18.60;10.80;;;;;;;25.97;14.95;101918.28;5080251;28;20452;-61
2021/03/30 09:31:58;;;;;;;18.73;10.37;;;;;;;27.92;14.54;101921.19;5086990;28;20487;-60
2021/03/30 09:34:25;;;;;;;15.33;9.20;;;;;;;28.17;13.08;101924.09;5090901;28;20955;-61
2021/03/30 09:36:52;;;;;;;10.00;7.20;;;;;;;26.41;12.94;101921.66;5082660;28;20502;-62
2021/03/30 09:39:20;;;;;;;9.80;6.60;;;;;;;25.23;12.89;101905.91;5079849;28;20439;-60
2021/03/30 09:41:49;;;;;;;12.33;7.43;;;;;;;25.93;13.11;101909.56;5086854;28;20479;-62
2021/03/30 09:44:16;;;;;;;13.57;8.13;;;;;;;27.09;13.64;101913.38;5087836;28;20456;-61
2021/03/30 09:46:43;;;;;;;13.53;8.57;;;;;;;27.29;12.92;101918.94;5089550;28;20506;-63
2021/03/30 09:49:11;;;;;;;14.03;8.10;;;;;;;27.26;12.36;101913.00;5069948;28;20933;-62
2021/03/30 09:51:38;;;;;;;12.53;7.53;;;;;;;28.71;11.86;101921.94;5080141;28;20575;-63
2021/03/30 09:54:27;;;;;;;11.53;7.80;;;;;;;28.36;11.93;101914.03;5080022;28;20523;-62
2021/03/30 09:57:00;;;;;;;13.63;7.90;;;;;;;28.64;12.24;101920.28;5091707;28;20475;-61
2021/03/30 09:59:27;;;;;;;13.40;8.40;;;;;;;29.22;11.78;101905.50;5087832;28;20448;-62
2021/03/30 10:01:54;;;;;;;15.23;9.93;;;;;;;28.68;13.40;101911.38;5079103;28;20476;-62
2021/03/30 10:04:27;;;;;;;12.13;8.97;;;;;;;27.49;14.09;101907.09;5088124;28;20963;-62
2021/03/30 10:06:54;;;;;;;11.70;8.30;;;;;;;26.62;13.59;101904.25;5081447;28;20529;-62
2021/03/30 10:09:20;;;;;;;12.03;8.40;;;;;;;26.04;15.18;101899.13;5079270;28;20459;-60
2021/03/30 10:11:49;;;;;;;13.00;8.90;;;;;;;27.46;14.09;101902.84;5079177;28;20506;-60
2021/03/30 10:14:24;;;;;;;15.03;9.27;;;;;;;27.12;15.23;101909.41;5080547;28;20444;-61
2021/03/30 10:16:52;;;;;;;18.20;9.13;;;;;;;28.51;13.51;101905.50;5079031;28;20479;-62
2021/03/30 10:19:19;;;;;;;13.77;8.60;;;;;;;27.38;13.59;101900.34;5083001;28;21032;-62
2021/03/30 10:21:48;;;;;;;13.90;8.90;;;;;;;27.86;13.45;101905.50;5079147;28;21066;-61
2021/03/30 10:24:16;;;;;;;12.03;8.37;;;;;;;26.78;14.23;101900.25;5086195;28;20448;-62
2021/03/30 10:26:43;;;;;;;12.60;8.40;;;;;;;27.33;13.90;101898.22;5079147;28;20486;-62
2021/03/30 10:29:16;;;;;;;13.70;8.80;;;;;;;27.26;14.81;101891.84;5064115;28;20431;-61
2021/03/30 10:31:46;;;;;;;12.90;8.90;;;;;;;27.15;14.28;101900.72;5078468;28;20498;-62
2021/03/30 10:34:23;;;;;;;12.93;8.90;;;;;;;26.78;13.98;101900.25;5086386;28;20452;-62
2021/03/30 10:36:50;;;;;;;13.83;8.90;;;;;;;28.05;13.87;101906.53;5096500;28;21143;-62
2021/03/30 10:39:16;;;;;;;12.37;7.47;;;;;;;27.46;12.78;101896.50;5083570;28;20446;-60
2021/03/30 10:41:43;;;;;;;12.63;7.87;;;;;;;28.02;13.49;101900.63;5096215;28;21136;-61
2021/03/30 10:44:14;;;;;;;10.20;7.67;;;;;;;28.37;12.45;101895.63;5087007;28;20481;-63
2021/03/30 10:46:42;;;;;;;12.10;8.27;;;;;;;29.73;12.82;101895.25;5094554;28;20536;-63
2021/03/30 10:49:08;;;;;;;12.07;8.37;;;;;;;29.16;13.45;101900.91;5098156;28;20546;-62
2021/03/30 10:51:36;;;;;;;10.70;8.27;;;;;;;28.48;13.65;101891.34;5099502;28;20479;-63
2021/03/30 10:54:04;;;;;;;12.23;9.30;;;;;;;27.12;13.52;101891.00;5099194;28;20486;-63
2021/03/30 10:56:31;;;;;;;12.77;9.00;;;;;;;27.84;13.46;101899.38;5098992;28;20846;-62
2021/03/30 10:58:57;;;;;;;13.50;8.10;;;;;;;28.01;12.17;101893.47;5111920;28;20458;-63
2021/03/30 11:01:24;;;;;;;10.70;8.37;;;;;;;28.93;13.77;101894.06;5098115;28;20965;-63
2021/03/30 11:03:51;;;;;;;14.20;7.87;;;;;;;28.89;12.31;101879.88;5099938;28;20446;-62
2021/03/30 11:06:17;;;;;;;13.03;8.97;;;;;;;28.20;13.33;101883.44;5098961;28;20527;-63
2021/03/30 11:08:43;;;;;;;14.00;7.33;;;;;;;28.16;13.67;101891.31;5098784;28;20451;-60
2021/03/30 11:11:10;;;;;;;13.33;7.83;;;;;;;28.37;12.55;101884.63;5098818;28;20673;-59
2021/03/30 11:13:37;;;;;;;15.10;8.70;;;;;;;28.77;12.38;101873.41;5100204;28;20450;-60
2021/03/30 11:16:05;;;;;;;13.83;8.20;;;;;;;28.18;13.45;101881.75;5099082;28;20554;-60
2021/03/30 11:18:32;;;;;;;13.60;8.60;;;;;;;28.17;12.53;101880.09;5100203;28;20435;-59
2021/03/30 11:20:58;;;;;;;10.67;7.80;;;;;;;27.64;12.97;101879.34;5099446;28;20482;-62
2021/03/30 11:23:24;;;;;;;12.20;6.83;;;;;;;27.73;12.43;101875.34;5099296;28;20455;-60
2021/03/30 11:25:50;;;;;;;8.83;6.00;;;;;;;28.36;12.13;101867.28;5099208;28;20474;-62